Time;durP1;ratioP1;P1;durP2;ratioP2;P2;SDS_P1;SDS_P2;PMS_P1;PMS_P2;Temp;Humidity;BMP_temperature;BMP_pressure;BME280_temperature;BME280_humidity;BME280_pressure;Samples;Min_cycle;Max_cycle;Signal;HPM_P1;HPM_P2
2022/09/13 00:00:51;;;;;;;9.23;8.53;;;13.00;99.90;;;;;;4956907;28;20186;-73
2022/09/13 00:03:18;;;;;;;9.70;8.70;;;13.00;99.90;;;;;;4952628;28;20185;-74
2022/09/13 00:05:44;;;;;;;9.00;8.40;;;12.90;99.90;;;;;;4957211;28;20284;-74
2022/09/13 00:08:10;;;;;;;11.43;10.73;;;12.80;99.90;;;;;;4964521;29;20688;-74
2022/09/13 00:10:37;;;;;;;12.60;11.77;;;12.80;99.90;;;;;;4954757;28;20635;-73
2022/09/13 00:13:05;;;;;;;16.03;15.07;;;12.80;99.90;;;;;;4972630;28;20184;-74
2022/09/13 00:15:32;;;;;;;14.67;13.73;;;12.70;99.90;;;;;;4972545;28;20631;-74
2022/09/13 00:17:57;;;;;;;14.97;13.87;;;12.70;99.90;;;;;;4972973;28;20217;-74
2022/09/13 00:20:23;;;;;;;17.40;16.10;;;12.60;99.90;;;;;;4972415;28;20263;-74
2022/09/13 00:22:50;;;;;;;20.47;18.47;;;12.60;99.90;;;;;;4954427;28;20749;-74
2022/09/13 00:25:16;;;;;;;20.50;19.23;;;12.50;99.90;;;;;;4953117;29;20213;-74
2022/09/13 00:27:43;;;;;;;20.30;19.20;;;12.50;99.90;;;;;;4952860;29;20188;-74
2022/09/13 00:30:10;;;;;;;24.47;23.07;;;12.50;99.90;;;;;;4954032;28;20197;-74
2022/09/13 00:32:36;;;;;;;18.93;17.37;;;12.40;99.90;;;;;;4971101;28;20526;-74
2022/09/13 00:35:04;;;;;;;22.50;21.20;;;12.40;99.90;;;;;;4973497;28;20216;-74
2022/09/13 00:37:32;;;;;;;18.63;16.87;;;12.50;99.90;;;;;;4972472;28;20185;-74
2022/09/13 00:39:58;;;;;;;19.57;18.37;;;12.50;99.90;;;;;;4973202;28;20210;-74
2022/09/13 00:42:27;;;;;;;29.80;28.17;;;12.50;99.90;;;;;;4956557;28;20185;-74
2022/09/13 00:44:57;;;;;;;25.97;24.60;;;12.50;99.90;;;;;;4952709;29;20675;-74
2022/09/13 00:47:35;;;;;;;26.17;24.67;;;12.50;99.90;;;;;;4951883;29;20182;-74
2022/09/13 00:50:19;;;;;;;24.87;22.87;;;12.40;99.90;;;;;;4952659;29;20878;-74
2022/09/13 00:52:51;;;;;;;19.00;17.60;;;12.40;99.90;;;;;;4971245;28;20181;-74
2022/09/13 00:55:49;;;;;;;17.97;16.63;;;12.30;99.90;;;;;;4973080;28;20659;-74
2022/09/13 00:58:20;;;;;;;18.07;16.97;;;12.40;99.90;;;;;;4971558;28;20189;-74
2022/09/13 01:00:47;;;;;;;18.77;17.57;;;12.40;99.90;;;;;;4968777;28;20292;-74
2022/09/13 01:03:15;;;;;;;20.67;19.57;;;12.40;99.90;;;;;;4953350;28;20184;-74
2022/09/13 01:05:50;;;;;;;22.40;20.73;;;12.40;99.90;;;;;;4952287;29;20217;-74
2022/09/13 01:08:21;;;;;;;25.53;24.07;;;12.40;99.90;;;;;;4952612;28;20277;-74
2022/09/13 01:10:51;;;;;;;24.53;23.17;;;12.40;99.90;;;;;;4954569;28;20174;-74
2022/09/13 01:13:27;;;;;;;24.30;22.20;;;12.40;99.90;;;;;;4961054;28;20192;-74
2022/09/13 01:15:52;;;;;;;30.67;29.10;;;12.30;99.90;;;;;;4972587;28;20192;-74
2022/09/13 01:18:19;;;;;;;38.00;35.77;;;12.30;99.90;;;;;;4970642;28;20260;-74
2022/09/13 01:21:40;;;;;;;24.17;22.80;;;12.20;99.90;;;;;;4970498;28;20937;-74
2022/09/13 01:24:43;;;;;;;25.40;23.80;;;12.20;99.90;;;;;;4953291;28;20219;-73
2022/09/13 01:27:45;;;;;;;18.13;17.07;;;12.20;99.90;;;;;;4951457;29;20185;-74
2022/09/13 01:30:17;;;;;;;18.80;17.57;;;12.10;99.90;;;;;;4929884;28;20205;-74
2022/09/13 01:32:55;;;;;;;18.97;17.90;;;12.10;99.90;;;;;;4969715;28;20640;-73
2022/09/13 01:35:30;;;;;;;18.03;16.90;;;12.10;99.90;;;;;;4974718;28;20184;-73
2022/09/13 01:38:31;;;;;;;20.83;19.47;;;12.20;99.90;;;;;;4972487;28;20676;-74
2022/09/13 01:41:06;;;;;;;17.27;16.27;;;12.10;99.90;;;;;;4967831;28;20178;-74
2022/09/13 01:43:50;;;;;;;20.03;18.73;;;12.10;99.90;;;;;;4953247;28;20598;-74
2022/09/13 01:46:38;;;;;;;20.50;19.30;;;12.00;99.90;;;;;;4968900;29;20496;-74
2022/09/13 01:49:26;;;;;;;23.80;22.10;;;12.00;99.90;;;;;;4946279;29;20224;-74
2022/09/13 01:52:00;;;;;;;49.20;46.60;;;12.00;99.90;;;;;;4959590;28;20184;-74
2022/09/13 01:55:10;;;;;;;37.33;35.23;;;12.00;99.90;;;;;;4956087;29;20184;-74
2022/09/13 01:57:39;;;;;;;44.07;41.77;;;12.00;99.90;;;;;;4923937;28;20220;-74
2022/09/13 02:00:09;;;;;;;63.17;59.87;;;12.00;99.90;;;;;;4955570;28;20272;-74
2022/09/13 02:02:41;;;;;;;53.77;50.90;;;11.90;99.90;;;;;;4971569;28;20184;-74
2022/09/13 02:05:31;;;;;;;63.87;60.47;;;11.90;99.90;;;;;;4974912;28;20239;-74
2022/09/13 02:08:03;;;;;;;47.00;44.43;;;11.90;99.90;;;;;;4975834;28;20192;-74
2022/09/13 02:10:35;;;;;;;61.60;58.23;;;11.80;99.90;;;;;;4975041;28;20256;-74
2022/09/13 02:13:05;;;;;;;56.53;53.27;;;11.80;99.90;;;;;;4957660;28;20204;-74
2022/09/13 02:15:42;;;;;;;58.13;55.00;;;11.70;99.90;;;;;;4956673;28;20209;-74
2022/09/13 02:18:14;;;;;;;45.77;43.40;;;11.70;99.90;;;;;;4967825;28;20211;-74
2022/09/13 02:20:47;;;;;;;31.60;29.80;;;11.60;99.90;;;;;;4974628;28;20208;-74
2022/09/13 02:23:20;;;;;;;21.60;20.40;;;11.70;99.90;;;;;;4944041;28;20185;-74
2022/09/13 02:25:49;;;;;;;24.00;22.73;;;11.70;99.90;;;;;;4974626;28;20308;-74
2022/09/13 02:28:21;;;;;;;38.37;36.27;;;11.60;99.90;;;;;;4974371;28;20181;-73
2022/09/13 02:30:52;;;;;;;60.73;57.53;;;11.60;99.90;;;;;;4975261;28;20549;-74
2022/09/13 02:33:22;;;;;;;55.00;52.00;;;11.60;99.90;;;;;;4956399;28;20192;-74
2022/09/13 02:35:54;;;;;;;62.00;58.43;;;11.60;99.90;;;;;;4956322;28;20186;-74
2022/09/13 02:38:26;;;;;;;58.03;54.80;;;11.60;99.90;;;;;;4955381;28;20645;-74
2022/09/13 02:41:18;;;;;;;65.40;61.87;;;11.60;99.90;;;;;;4956531;28;20272;-74
2022/09/13 02:43:49;;;;;;;52.33;49.33;;;11.50;99.90;;;;;;4968338;28;20673;-73
2022/09/13 02:46:46;;;;;;;48.70;45.83;;;11.50;99.90;;;;;;4956121;28;20224;-74
2022/09/13 02:49:25;;;;;;;61.37;57.83;;;11.40;99.90;;;;;;4955911;28;20237;-74
2022/09/13 02:52:08;;;;;;;47.23;44.53;;;11.40;99.90;;;;;;4964055;28;20654;-74
2022/09/13 02:54:53;;;;;;;29.73;27.70;;;11.30;99.90;;;;;;4975154;28;20211;-74
2022/09/13 02:57:24;;;;;;;24.60;23.27;;;11.40;99.90;;;;;;4973532;28;20684;-74
2022/09/13 02:59:52;;;;;;;23.10;21.63;;;11.40;99.90;;;;;;4979125;23;20232;-77
2022/09/13 03:02:22;;;;;;;19.60;18.43;;;11.40;99.90;;;;;;4945809;29;20173;-76
2022/09/13 03:04:49;;;;;;;25.17;23.57;;;11.40;99.90;;;;;;4954069;28;20292;-77
2022/09/13 03:07:15;;;;;;;26.60;25.17;;;11.40;99.90;;;;;;4926618;29;20221;-77
2022/09/13 03:09:51;;;;;;;24.50;23.03;;;11.30;99.90;;;;;;4917388;29;20203;-77
2022/09/13 03:12:41;;;;;;;25.50;24.13;;;11.40;99.90;;;;;;4916329;29;20229;-78
2022/09/13 03:15:36;;;;;;;35.20;33.33;;;11.30;99.90;;;;;;4917517;29;20732;-77
2022/09/13 03:18:27;;;;;;;54.70;51.40;;;11.30;99.90;;;;;;4915392;29;20656;-77
2022/09/13 03:21:00;;;;;;;28.10;26.50;;;11.20;99.90;;;;;;4927977;29;20238;-77
2022/09/13 03:23:26;;;;;;;17.60;16.63;;;11.20;99.90;;;;;;4935032;29;20194;-77
2022/09/13 03:26:13;;;;;;;18.27;17.17;;;11.20;99.90;;;;;;4935687;29;20202;-77
2022/09/13 03:29:05;;;;;;;21.77;20.30;;;11.20;99.90;;;;;;4934184;29;20651;-77
2022/09/13 03:32:00;;;;;;;20.13;18.70;;;11.10;99.90;;;;;;4920165;29;20651;-77
2022/09/13 03:34:32;;;;;;;18.43;17.37;;;11.10;99.90;;;;;;4933966;29;20183;-77
2022/09/13 03:37:25;;;;;;;28.33;26.77;;;11.00;99.90;;;;;;4932666;29;20194;-77
2022/09/13 03:40:17;;;;;;;23.60;22.10;;;11.00;99.90;;;;;;4936377;29;20210;-77
2022/09/13 03:43:07;;;;;;;19.60;18.03;;;11.00;99.90;;;;;;4943558;29;20208;-77
2022/09/13 03:45:40;;;;;;;19.27;17.80;;;11.00;99.90;;;;;;4921155;29;20853;-77
2022/09/13 03:48:08;;;;;;;24.90;23.43;;;11.00;99.90;;;;;;4933518;29;20186;-77
2022/09/13 03:50:35;;;;;;;35.20;33.20;;;11.00;99.90;;;;;;4933985;29;20202;-77
2022/09/13 03:53:06;;;;;;;24.53;22.87;;;11.00;99.90;;;;;;4935528;29;20559;-76
2022/09/13 03:55:34;;;;;;;19.23;18.20;;;11.00;99.90;;;;;;4934330;29;20182;-77
2022/09/13 03:58:00;;;;;;;30.37;28.10;;;11.00;99.90;;;;;;4934757;29;20269;-77
2022/09/13 04:00:26;;;;;;;31.27;29.40;;;10.90;99.90;;;;;;4935051;29;20263;-76
2022/09/13 04:02:52;;;;;;;32.83;31.03;;;10.90;99.90;;;;;;4934209;29;20780;-78
2022/09/13 04:05:18;;;;;;;21.80;20.40;;;10.90;99.90;;;;;;4935388;29;20248;-77
2022/09/13 04:07:44;;;;;;;31.40;29.40;;;10.90;99.90;;;;;;4934882;29;20210;-78
2022/09/13 04:10:10;;;;;;;33.13;31.17;;;10.90;99.90;;;;;;4935329;29;20238;-77
2022/09/13 04:12:37;;;;;;;28.03;26.13;;;10.90;99.90;;;;;;4935232;29;20266;-77
2022/09/13 04:15:04;;;;;;;27.00;25.30;;;10.90;99.90;;;;;;4934033;29;20189;-77
2022/09/13 04:17:30;;;;;;;24.80;23.40;;;10.80;99.90;;;;;;4933336;29;20194;-77
2022/09/13 04:19:56;;;;;;;20.73;19.43;;;10.80;99.90;;;;;;4936229;29;20266;-73
2022/09/13 04:22:22;;;;;;;14.40;13.60;;;10.80;99.90;;;;;;4935134;29;20193;-73
2022/09/13 04:24:48;;;;;;;65.37;61.97;;;10.90;99.90;;;;;;4935050;29;20214;-73
2022/09/13 04:27:14;;;;;;;88.80;84.23;;;10.90;99.90;;;;;;4934249;29;20178;-73
2022/09/13 04:29:40;;;;;;;70.13;66.47;;;10.90;99.90;;;;;;4933495;29;20230;-73
2022/09/13 04:32:06;;;;;;;67.33;63.73;;;10.90;99.90;;;;;;4922999;29;20266;-73
2022/09/13 04:34:31;;;;;;;64.63;61.00;;;10.90;99.90;;;;;;4917531;29;20195;-73
2022/09/13 04:36:57;;;;;;;34.00;32.10;;;10.90;99.90;;;;;;4919246;29;20563;-74
2022/09/13 04:39:23;;;;;;;16.03;15.00;;;11.00;99.90;;;;;;4952723;29;20213;-73
2022/09/13 04:41:53;;;;;;;19.40;17.90;;;11.00;99.90;;;;;;4952379;29;20182;-73
2022/09/13 04:44:20;;;;;;;30.37;28.47;;;11.00;99.90;;;;;;4955224;28;20229;-73
2022/09/13 04:46:47;;;;;;;32.93;31.10;;;10.90;99.90;;;;;;4975479;28;20270;-74
2022/09/13 04:49:15;;;;;;;28.07;26.47;;;10.80;99.90;;;;;;4954649;29;20206;-74
2022/09/13 04:51:40;;;;;;;18.43;17.23;;;10.90;99.90;;;;;;4934229;29;20237;-73
2022/09/13 04:54:09;;;;;;;18.23;16.80;;;11.00;99.90;;;;;;4933677;29;20186;-73
2022/09/13 04:56:35;;;;;;;21.53;20.27;;;11.00;99.90;;;;;;4932763;29;20652;-73
2022/09/13 04:59:01;;;;;;;24.93;23.47;;;11.10;99.90;;;;;;4933175;29;20655;-74
2022/09/13 05:01:28;;;;;;;17.90;16.87;;;11.10;99.90;;;;;;4941703;29;20182;-73
2022/09/13 05:03:54;;;;;;;30.47;28.77;;;11.30;99.90;;;;;;4941556;29;20187;-73
2022/09/13 05:06:21;;;;;;;19.70;18.37;;;11.30;99.90;;;;;;4931412;29;20572;-74
2022/09/13 05:08:54;;;;;;;16.50;15.37;;;11.30;99.90;;;;;;4925608;29;20245;-74
2022/09/13 05:11:25;;;;;;;12.70;11.90;;;11.50;99.90;;;;;;4933856;29;20190;-74
2022/09/13 05:13:57;;;;;;;29.93;28.23;;;11.60;99.90;;;;;;4934146;29;20189;-73
2022/09/13 05:16:24;;;;;;;61.80;58.60;;;11.70;99.90;;;;;;4932204;29;20178;-73
2022/09/13 05:18:51;;;;;;;38.50;36.10;;;11.80;99.90;;;;;;4931201;29;20179;-74
2022/09/13 05:21:17;;;;;;;19.60;18.17;;;11.90;99.90;;;;;;4927151;29;20191;-73
2022/09/13 05:23:43;;;;;;;10.67;9.70;;;12.00;99.90;;;;;;4913645;29;20528;-74
2022/09/13 05:26:09;;;;;;;95.60;90.30;;;12.10;99.90;;;;;;4914097;29;20578;-74
2022/09/13 05:28:36;;;;;;;161.87;153.10;;;12.30;99.90;;;;;;4914125;29;20270;-74
2022/09/13 05:31:15;;;;;;;76.57;72.53;;;12.60;99.90;;;;;;4914419;29;20207;-76
2022/09/13 05:33:41;;;;;;;75.83;71.73;;;13.00;99.90;;;;;;4913527;29;20183;-75
2022/09/13 05:36:07;;;;;;;17.30;15.90;;;13.30;99.90;;;;;;4914975;29;20190;-75
2022/09/13 05:38:32;;;;;;;29.40;27.23;;;13.50;99.90;;;;;;4914153;29;20193;-75
2022/09/13 05:41:01;;;;;;;26.03;24.43;;;13.60;99.90;;;;;;4914961;29;20641;-76
2022/09/13 05:43:30;;;;;;;36.17;33.80;;;13.70;99.90;;;;;;4915435;29;20190;-76
2022/09/13 05:46:04;;;;;;;41.63;39.30;;;13.60;99.90;;;;;;4914922;29;20211;-76
2022/09/13 05:48:31;;;;;;;32.73;30.93;;;13.60;99.90;;;;;;4914131;29;20190;-75
2022/09/13 05:51:05;;;;;;;31.57;29.83;;;13.50;99.90;;;;;;4914772;29;20202;-75
2022/09/13 05:53:32;;;;;;;41.80;39.10;;;13.50;99.90;;;;;;4914847;29;20190;-75
2022/09/13 05:55:58;;;;;;;51.77;48.93;;;13.40;99.90;;;;;;4915368;29;20194;-76
2022/09/13 05:58:25;;;;;;;57.60;54.50;;;13.30;99.90;;;;;;4914076;29;20197;-75
2022/09/13 06:00:55;;;;;;;59.43;56.13;;;13.30;99.90;;;;;;4935975;29;20207;-76
2022/09/13 06:03:22;;;;;;;51.03;48.27;;;13.30;99.90;;;;;;4917990;29;20657;-76
2022/09/13 06:05:53;;;;;;;50.00;47.13;;;13.20;99.90;;;;;;4914740;29;20219;-75
2022/09/13 06:08:18;;;;;;;44.73;42.17;;;13.20;99.90;;;;;;4914154;29;20179;-76
2022/09/13 06:10:55;;;;;;;39.57;37.40;;;13.10;99.90;;;;;;4913550;29;20225;-76
2022/09/13 06:13:22;;;;;;;33.43;31.43;;;13.20;99.90;;;;;;4913593;29;20267;-76
2022/09/13 06:15:48;;;;;;;30.83;29.00;;;13.20;99.90;;;;;;4914611;29;20187;-75
2022/09/13 06:18:13;;;;;;;24.57;23.17;;;13.30;99.90;;;;;;4913898;29;20190;-76
2022/09/13 06:20:40;;;;;;;26.33;24.57;;;13.40;99.90;;;;;;4913630;29;20275;-75
2022/09/13 06:23:05;;;;;;;27.00;25.40;;;13.60;99.90;;;;;;4914621;29;20261;-75
2022/09/13 06:25:31;;;;;;;43.77;41.47;;;13.90;99.90;;;;;;4914625;29;20211;-75
2022/09/13 06:27:57;;;;;;;44.70;42.03;;;14.10;99.90;;;;;;4912655;29;20215;-76
2022/09/13 06:30:23;;;;;;;12.57;11.47;;;14.30;99.90;;;;;;4914442;29;20199;-75
2022/09/13 06:32:49;;;;;;;8.20;7.37;;;14.60;99.90;;;;;;4918350;29;20292;-76
2022/09/13 06:35:15;;;;;;;9.77;9.07;;;14.70;99.90;;;;;;4918056;29;20690;-75
2022/09/13 06:37:41;;;;;;;10.37;9.53;;;14.90;99.90;;;;;;4917136;29;20234;-76
2022/09/13 06:40:08;;;;;;;10.60;9.80;;;15.10;99.90;;;;;;4917933;29;20211;-76
2022/09/13 06:42:35;;;;;;;9.67;9.07;;;15.20;99.90;;;;;;4918337;29;20195;-75
2022/09/13 06:45:02;;;;;;;10.07;9.47;;;15.40;99.90;;;;;;4917839;29;20691;-75
2022/09/13 06:47:27;;;;;;;9.70;9.03;;;15.60;99.90;;;;;;4917232;29;20234;-76
2022/09/13 06:49:53;;;;;;;9.77;8.87;;;15.70;99.90;;;;;;4916677;29;20198;-76
2022/09/13 06:52:19;;;;;;;8.67;8.07;;;15.70;99.90;;;;;;4917896;29;20183;-77
2022/09/13 06:54:44;;;;;;;8.90;8.10;;;15.70;99.90;;;;;;4918930;29;20653;-75
2022/09/13 06:57:10;;;;;;;7.93;7.23;;;15.50;99.90;;;;;;4931967;29;20195;-76
2022/09/13 06:59:36;;;;;;;11.80;7.83;;;15.40;99.90;;;;;;4923778;29;20600;-75
2022/09/13 07:02:02;;;;;;;8.70;7.87;;;15.50;99.90;;;;;;4917589;29;20258;-76
2022/09/13 07:04:30;;;;;;;8.93;8.40;;;15.60;99.90;;;;;;4917497;29;20222;-76
2022/09/13 07:06:57;;;;;;;15.80;14.63;;;15.80;99.90;;;;;;4915616;29;20238;-76
2022/09/13 07:09:23;;;;;;;39.67;37.67;;;16.10;99.90;;;;;;4917390;29;20695;-75
2022/09/13 07:11:52;;;;;;;21.50;20.30;;;16.70;99.90;;;;;;4934980;29;20214;-76
2022/09/13 07:14:21;;;;;;;72.27;68.27;;;17.30;99.90;;;;;;4923985;29;20198;-76
2022/09/13 07:16:47;;;;;;;24.10;22.73;;;17.90;99.90;;;;;;4916678;29;20186;-75
2022/09/13 07:19:16;;;;;;;15.03;14.03;;;18.30;99.90;;;;;;4917154;29;20209;-75
2022/09/13 07:21:42;;;;;;;18.57;17.37;;;18.60;99.90;;;;;;4917344;29;20660;-75
2022/09/13 07:24:09;;;;;;;16.97;15.97;;;18.70;99.90;;;;;;4916091;29;20210;-75
2022/09/13 07:26:35;;;;;;;14.87;13.80;;;19.00;99.90;;;;;;4917085;29;20190;-75
2022/09/13 07:29:07;;;;;;;22.40;21.23;;;19.10;99.90;;;;;;4916211;29;20179;-75
2022/09/13 07:31:36;;;;;;;40.80;38.60;;;19.30;99.90;;;;;;4917178;29;20187;-75
2022/09/13 07:34:07;;;;;;;57.23;54.13;;;19.60;99.90;;;;;;4917049;29;20183;-76
2022/09/13 07:36:35;;;;;;;40.77;38.63;;;19.40;99.90;;;;;;4917089;29;20689;-75
2022/09/13 07:39:01;;;;;;;30.30;28.60;;;19.20;99.90;;;;;;4914852;29;20179;-75
2022/09/13 07:41:29;;;;;;;60.27;57.10;;;19.30;99.90;;;;;;4916399;29;20175;-75
2022/09/13 07:43:56;;;;;;;116.07;110.30;;;19.70;99.90;;;;;;4916658;29;20209;-76
2022/09/13 07:46:27;;;;;;;93.80;89.23;;;20.00;99.90;;;;;;4916868;29;20242;-76
2022/09/13 07:48:55;;;;;;;79.50;75.47;;;20.00;99.90;;;;;;4915893;29;20299;-75
2022/09/13 07:51:26;;;;;;;28.67;27.00;;;20.40;99.90;;;;;;4915531;29;20206;-75
2022/09/13 07:53:56;;;;;;;16.65;15.73;;;21.00;99.90;;;;;;4916647;29;20215;-76
2022/09/13 07:56:24;;;;;;;14.13;13.38;;;21.40;99.90;;;;;;4916668;29;20178;-76
2022/09/13 07:58:51;;;;;;;11.75;10.95;;;21.50;99.90;;;;;;4915595;29;20270;-75
2022/09/13 08:01:22;;;;;;;8.00;7.50;;;22.00;99.90;;;;;;4916575;29;20183;-76
2022/09/13 08:04:00;;;;;;;6.40;6.00;;;22.50;99.90;;;;;;4916404;29;20616;-76
2022/09/13 08:06:28;;;;;;;13.55;12.23;;;22.90;99.90;;;;;;4916522;29;20539;-76
2022/09/13 08:08:55;;;;;;;51.92;49.45;;;23.00;99.90;;;;;;4914308;29;20187;-76
2022/09/13 08:11:27;;;;;;;68.60;64.78;;;23.00;99.90;;;;;;4916409;29;20723;-76
2022/09/13 08:13:54;;;;;;;77.45;73.57;;;23.40;99.90;;;;;;4915154;29;20175;-76
2022/09/13 08:16:22;;;;;;;86.15;81.95;;;23.40;99.90;;;;;;4916312;29;20183;-76
2022/09/13 08:18:55;;;;;;;73.13;69.18;;;23.60;99.90;;;;;;4914032;29;20179;-77
2022/09/13 08:21:23;;;;;;;21.02;19.92;;;24.00;99.90;;;;;;4916222;29;20671;-76
2022/09/13 08:23:53;;;;;;;7.65;7.22;;;24.50;99.90;;;;;;4927691;29;20203;-76
2022/09/13 08:26:20;;;;;;;8.95;8.45;;;24.50;99.90;;;;;;4933291;29;20229;-76
2022/09/13 08:28:45;;;;;;;7.13;6.45;;;24.50;99.90;;;;;;4924197;29;20226;-76
2022/09/13 08:31:16;;;;;;;6.57;6.10;;;24.60;99.90;;;;;;4915869;29;20294;-76
2022/09/13 08:33:44;;;;;;;7.15;6.75;;;24.60;99.90;;;;;;4915742;29;20235;-76
2022/09/13 08:36:10;;;;;;;6.53;6.22;;;24.70;99.90;;;;;;4914713;29;20197;-76
2022/09/13 08:38:36;;;;;;;6.65;6.30;;;24.80;99.90;;;;;;4915026;29;20194;-76
2022/09/13 08:41:18;;;;;;;7.38;6.97;;;24.70;99.90;;;;;;4916208;29;20301;-76
2022/09/13 08:43:49;;;;;;;6.97;6.65;;;24.60;99.90;;;;;;4914493;29;20604;-76
2022/09/13 08:46:36;;;;;;;5.70;5.30;;;25.10;99.90;;;;;;4914687;29;20654;-76
2022/09/13 08:49:11;;;;;;;6.35;5.20;;;25.40;99.90;;;;;;4913708;29;20187;-77
2022/09/13 08:52:01;;;;;;;7.53;5.05;;;25.60;99.90;;;;;;4915671;29;20735;-76
2022/09/13 08:54:27;;;;;;;3.88;3.63;;;26.00;99.90;;;;;;4915656;29;20195;-76
2022/09/13 08:57:15;;;;;;;4.90;4.55;;;26.00;99.90;;;;;;4914759;29;20206;-76
2022/09/13 09:00:10;;;;;;;5.88;4.93;;;25.70;99.90;;;;;;4944225;23;20229;-73
2022/09/13 09:02:39;;;;;;;5.68;5.13;;;25.40;99.90;;;;;;4942885;29;20282;-73
2022/09/13 09:05:16;;;;;;;4.85;4.55;;;25.60;99.90;;;;;;4953436;29;20253;-74
2022/09/13 09:07:47;;;;;;;4.28;4.07;;;26.10;99.90;;;;;;4952921;29;20212;-74
2022/09/13 09:10:25;;;;;;;4.72;4.30;;;26.70;99.90;;;;;;4953243;29;20202;-74
2022/09/13 09:13:08;;;;;;;3.60;3.40;;;26.70;99.90;;;;;;4953502;29;20669;-75
2022/09/13 09:15:50;;;;;;;4.40;4.10;;;27.10;99.90;;;;;;4954085;29;20188;-74
2022/09/13 09:18:22;;;;;;;4.15;3.70;;;28.10;99.20;;;;;;4952588;29;20189;-75
2022/09/13 09:20:55;;;;;;;6.65;6.18;;;28.20;98.50;;;;;;4936224;29;20202;-74
2022/09/13 09:23:27;;;;;;;11.50;10.90;;;28.40;97.30;;;;;;4936382;29;20548;-74
2022/09/13 09:26:19;;;;;;;9.80;9.20;;;28.00;96.40;;;;;;4953520;28;20595;-75
2022/09/13 09:29:25;;;;;;;7.63;7.22;;;27.80;97.00;;;;;;4952465;29;20251;-74
2022/09/13 09:32:02;;;;;;;15.77;14.88;;;27.80;96.90;;;;;;4952489;28;20193;-74
2022/09/13 09:34:52;;;;;;;14.38;13.52;;;27.90;96.50;;;;;;4936128;29;20181;-75
2022/09/13 09:37:28;;;;;;;14.55;13.93;;;27.70;97.70;;;;;;4952433;29;20189;-74
2022/09/13 09:40:00;;;;;;;17.75;16.75;;;27.90;97.50;;;;;;4953144;29;20212;-74
2022/09/13 09:42:31;;;;;;;26.75;25.45;;;28.00;96.90;;;;;;4953459;29;20654;-74
2022/09/13 09:45:18;;;;;;;18.70;17.80;;;28.00;96.20;;;;;;4953104;29;20219;-74
2022/09/13 09:47:48;;;;;;;27.85;26.45;;;28.10;96.90;;;;;;4935201;29;20261;-75
2022/09/13 09:50:22;;;;;;;26.45;25.20;;;28.00;96.40;;;;;;4936080;29;20215;-75
2022/09/13 09:53:19;;;;;;;19.63;18.73;;;27.70;95.70;;;;;;4953225;29;20622;-74
2022/09/13 09:55:59;;;;;;;28.35;26.77;;;27.90;96.30;;;;;;4935930;29;20620;-73
2022/09/13 09:58:45;;;;;;;33.80;31.92;;;28.20;94.40;;;;;;4952529;28;20185;-74
2022/09/13 10:01:23;;;;;;;44.20;41.67;;;28.80;93.20;;;;;;4953170;28;20695;-74
2022/09/13 10:04:15;;;;;;;46.75;43.95;;;29.00;92.60;;;;;;4952921;29;20192;-74
2022/09/13 10:06:42;;;;;;;61.55;58.47;;;28.90;92.20;;;;;;4933902;29;20201;-74
2022/09/13 10:09:19;;;;;;;45.78;43.60;;;29.00;91.60;;;;;;4939406;29;20181;-74
2022/09/13 10:11:52;;;;;;;18.10;17.08;;;29.00;90.80;;;;;;4956657;29;20232;-74
2022/09/13 10:14:33;;;;;;;26.08;24.77;;;29.20;86.80;;;;;;4939575;29;20586;-74
2022/09/13 10:17:22;;;;;;;31.13;29.33;;;28.90;89.20;;;;;;4938910;29;20194;-74
2022/09/13 10:20:01;;;;;;;47.33;45.05;;;29.20;90.00;;;;;;4956631;29;20212;-74
2022/09/13 10:22:29;;;;;;;17.98;17.17;;;29.90;90.20;;;;;;4956561;29;20190;-74
2022/09/13 10:25:07;;;;;;;11.15;10.18;;;30.20;87.70;;;;;;4956389;29;20245;-74
2022/09/13 10:27:38;;;;;;;13.00;12.10;;;30.00;85.20;;;;;;4955903;29;20188;-74
2022/09/13 10:30:25;;;;;;;9.85;8.93;;;29.80;87.70;;;;;;4939244;29;20261;-74
2022/09/13 10:32:57;;;;;;;9.10;8.50;;;30.20;85.80;;;;;;4956760;28;20221;-74
2022/09/13 10:35:24;;;;;;;6.28;5.78;;;31.30;82.80;;;;;;4957002;29;20737;-74
2022/09/13 10:37:50;;;;;;;7.72;7.00;;;31.70;81.80;;;;;;4938352;29;20192;-74
2022/09/13 10:40:25;;;;;;;9.57;8.98;;;32.30;77.40;;;;;;4956179;29;20665;-74
2022/09/13 10:43:00;;;;;;;19.42;18.55;;;32.60;78.20;;;;;;4956129;28;20217;-75
2022/09/13 10:45:30;;;;;;;16.67;15.93;;;32.80;75.00;;;;;;4955953;29;20704;-74
2022/09/13 10:48:09;;;;;;;5.65;5.35;;;32.60;75.60;;;;;;4955267;29;20186;-74
2022/09/13 10:50:35;;;;;;;9.85;9.30;;;33.00;72.40;;;;;;4956235;29;20713;-74
2022/09/13 10:53:04;;;;;;;16.20;15.30;;;33.30;69.90;;;;;;4955839;29;20218;-74
2022/09/13 10:55:42;;;;;;;74.65;71.10;;;33.80;67.90;;;;;;4955844;29;20669;-74
2022/09/13 10:58:08;;;;;;;134.35;127.95;;;34.10;64.90;;;;;;4955414;28;20208;-74
2022/09/13 11:01:02;;;;;;;151.15;143.80;;;34.20;61.30;;;;;;4938405;29;20702;-74
2022/09/13 11:03:36;;;;;;;70.03;66.70;;;34.50;58.50;;;;;;4956111;29;20714;-74
2022/09/13 11:06:40;;;;;;;120.05;114.35;;;34.20;59.40;;;;;;4956978;29;20213;-74
2022/09/13 11:09:20;;;;;;;67.88;64.68;;;33.80;59.30;;;;;;4938195;29;20601;-75
2022/09/13 11:11:56;;;;;;;35.70;34.08;;;34.60;56.60;;;;;;4955611;28;20657;-74
2022/09/13 11:14:22;;;;;;;45.30;43.17;;;34.70;55.50;;;;;;4956397;29;20214;-74
2022/09/13 11:17:15;;;;;;;45.95;43.65;;;34.10;56.00;;;;;;4936870;29;20186;-74
2022/09/13 11:20:04;;;;;;;73.22;69.70;;;34.40;56.30;;;;;;4955315;29;20226;-74
2022/09/13 11:22:49;;;;;;;57.13;54.38;;;34.70;55.70;;;;;;4955460;29;20186;-74
2022/09/13 11:25:37;;;;;;;57.65;54.90;;;34.90;54.00;;;;;;4956796;28;20219;-75
2022/09/13 11:28:22;;;;;;;53.25;50.42;;;35.40;52.60;;;;;;4954344;28;20181;-75
2022/09/13 11:31:27;;;;;;;65.30;62.17;;;34.90;53.60;;;;;;4954980;29;20205;-74
2022/09/13 11:34:14;;;;;;;51.63;48.95;;;34.80;52.90;;;;;;4955200;28;20213;-74
2022/09/13 11:37:11;;;;;;;40.47;38.55;;;34.10;54.50;;;;;;4955077;28;20643;-74
2022/09/13 11:39:55;;;;;;;62.55;59.38;;;34.90;55.20;;;;;;4954907;29;20197;-75
2022/09/13 11:42:34;;;;;;;80.07;76.30;;;35.40;52.10;;;;;;4955117;28;20266;-74
2022/09/13 11:45:13;;;;;;;119.80;114.20;;;36.10;50.60;;;;;;4955026;28;20733;-74
2022/09/13 11:48:00;;;;;;;117.00;111.18;;;35.90;50.10;;;;;;4954187;28;20224;-74
2022/09/13 11:50:36;;;;;;;109.38;104.20;;;35.70;50.60;;;;;;4937730;29;20210;-74
2022/09/13 11:53:51;;;;;;;145.68;138.77;;;35.60;50.90;;;;;;4955014;29;20205;-75
2022/09/13 11:56:39;;;;;;;124.38;118.32;;;35.60;49.90;;;;;;4954904;29;20208;-75
2022/09/13 11:59:08;;;;;;;135.05;128.73;;;35.20;53.00;;;;;;4954074;29;20185;-75
2022/09/13 12:01:44;;;;;;;103.25;98.50;;;34.10;53.00;;;;;;4954535;28;20588;-75
2022/09/13 12:04:37;;;;;;;119.00;112.93;;;33.80;54.70;;;;;;4954664;28;20196;-75
2022/09/13 12:07:13;;;;;;;117.57;112.03;;;34.30;52.90;;;;;;4953993;29;20229;-75
2022/09/13 12:09:52;;;;;;;163.75;155.98;;;34.80;52.70;;;;;;4954616;28;20624;-75
2022/09/13 12:12:20;;;;;;;163.18;155.48;;;36.10;50.60;;;;;;4937642;29;20560;-74
2022/09/13 12:15:06;;;;;;;109.72;104.53;;;37.10;48.60;;;;;;4954376;29;20186;-75
2022/09/13 12:17:48;;;;;;;37.95;36.20;;;37.80;46.70;;;;;;4953588;29;20277;-74
2022/09/13 12:20:35;;;;;;;17.52;16.75;;;37.80;46.10;;;;;;4954511;29;20702;-74
2022/09/13 12:23:04;;;;;;;26.75;25.38;;;38.50;44.10;;;;;;4954778;29;20189;-75
2022/09/13 12:25:45;;;;;;;30.60;29.17;;;37.40;44.90;;;;;;4937048;29;20370;-74
2022/09/13 12:28:22;;;;;;;29.80;28.42;;;37.00;45.40;;;;;;4953102;28;20288;-74
2022/09/13 12:31:11;;;;;;;35.60;33.83;;;37.10;46.40;;;;;;4954173;29;20205;-74
2022/09/13 12:33:42;;;;;;;36.65;34.60;;;37.20;45.80;;;;;;4954184;29;20190;-74
2022/09/13 12:36:11;;;;;;;41.72;39.78;;;36.90;46.70;;;;;;4936955;29;20292;-74
2022/09/13 12:39:14;;;;;;;35.47;33.83;;;37.20;46.00;;;;;;4953434;29;20188;-74
2022/09/13 12:42:08;;;;;;;29.67;28.23;;;37.20;45.50;;;;;;4936827;29;20185;-74
2022/09/13 12:44:58;;;;;;;41.72;39.78;;;35.90;46.30;;;;;;4953834;28;20236;-74
2022/09/13 12:47:30;;;;;;;52.90;50.15;;;35.10;46.80;;;;;;4952937;29;20625;-74
2022/09/13 12:50:09;;;;;;;54.42;51.88;;;35.00;46.20;;;;;;4936638;29;20201;-74
2022/09/13 12:52:39;;;;;;;27.95;26.55;;;34.60;44.90;;;;;;4953603;29;20189;-75
2022/09/13 12:55:24;;;;;;;51.42;48.97;;;34.70;43.90;;;;;;4953719;29;20177;-74
2022/09/13 12:57:55;;;;;;;64.45;61.42;;;34.60;45.50;;;;;;4935762;29;20219;-74
2022/09/13 13:00:31;;;;;;;107.53;102.43;;;34.30;48.10;;;;;;4953533;28;20732;-74
2022/09/13 13:03:23;;;;;;;73.15;69.40;;;34.70;48.00;;;;;;4953630;29;20224;-74